sensor_id;sensor_type;location;lat;lon;timestamp;temperature;humidity
38568;DHT22;24338;48.280;10.970;2023-02-18T00:00:55;9.70;99.90
38568;DHT22;24338;48.280;10.970;2023-02-18T00:03:25;9.80;99.90
38568;DHT22;24338;48.280;10.970;2023-02-18T00:05:52;9.80;99.90
38568;DHT22;24338;48.280;10.970;2023-02-18T00:08:19;9.80;99.90
38568;DHT22;24338;48.280;10.970;2023-02-18T00:10:47;9.80;99.90
38568;DHT22;24338;48.280;10.970;2023-02-18T00:13:14;9.90;99.90
38568;DHT22;24338;48.280;10.970;2023-02-18T00:15:40;9.90;99.90
38568;DHT22;24338;48.280;10.970;2023-02-18T00:18:07;9.90;99.90
38568;DHT22;24338;48.280;10.970;2023-02-18T00:20:34;9.90;99.90
38568;DHT22;24338;48.280;10.970;2023-02-18T00:23:02;9.90;99.90
38568;DHT22;24338;48.280;10.970;2023-02-18T00:25:29;10.00;99.90
38568;DHT22;24338;48.280;10.970;2023-02-18T00:27:56;10.00;99.90
38568;DHT22;24338;48.280;10.970;2023-02-18T00:30:22;9.90;99.90
38568;DHT22;24338;48.280;10.970;2023-02-18T00:32:50;10.00;99.90
38568;DHT22;24338;48.280;10.970;2023-02-18T00:35:16;10.00;99.90
38568;DHT22;24338;48.280;10.970;2023-02-18T00:37:43;10.00;99.90
38568;DHT22;24338;48.280;10.970;2023-02-18T00:40:10;10.00;99.90
38568;DHT22;24338;48.280;10.970;2023-02-18T00:42:37;9.90;99.90
38568;DHT22;24338;48.280;10.970;2023-02-18T00:45:04;10.00;99.90
38568;DHT22;24338;48.280;10.970;2023-02-18T00:47:31;10.00;99.90
38568;DHT22;24338;48.280;10.970;2023-02-18T00:49:58;10.00;99.90
38568;DHT22;24338;48.280;10.970;2023-02-18T00:52:25;10.00;99.90
38568;DHT22;24338;48.280;10.970;2023-02-18T00:54:51;10.00;99.90
38568;DHT22;24338;48.280;10.970;2023-02-18T00:57:18;10.00;99.90
38568;DHT22;24338;48.280;10.970;2023-02-18T00:59:45;10.00;99.90
38568;DHT22;24338;48.280;10.970;2023-02-18T01:02:12;10.00;99.90
38568;DHT22;24338;48.280;10.970;2023-02-18T01:04:39;10.10;99.90
38568;DHT22;24338;48.280;10.970;2023-02-18T01:07:05;10.10;99.90
38568;DHT22;24338;48.280;10.970;2023-02-18T01:09:32;10.00;99.90
38568;DHT22;24338;48.280;10.970;2023-02-18T01:11:59;10.10;99.90
38568;DHT22;24338;48.280;10.970;2023-02-18T01:14:26;10.10;99.90
38568;DHT22;24338;48.280;10.970;2023-02-18T01:16:53;10.10;99.90
38568;DHT22;24338;48.280;10.970;2023-02-18T01:19:19;10.00;99.90
38568;DHT22;24338;48.280;10.970;2023-02-18T01:21:46;10.10;99.90
38568;DHT22;24338;48.280;10.970;2023-02-18T01:24:13;10.10;99.90
38568;DHT22;24338;48.280;10.970;2023-02-18T01:26:40;10.10;99.90
38568;DHT22;24338;48.280;10.970;2023-02-18T01:29:07;10.10;99.90
38568;DHT22;24338;48.280;10.970;2023-02-18T01:31:33;10.10;99.90
38568;DHT22;24338;48.280;10.970;2023-02-18T01:34:00;10.10;99.90
38568;DHT22;24338;48.280;10.970;2023-02-18T01:36:27;10.10;99.90
38568;DHT22;24338;48.280;10.970;2023-02-18T01:38:54;10.20;99.90
38568;DHT22;24338;48.280;10.970;2023-02-18T01:41:21;10.20;99.90
38568;DHT22;24338;48.280;10.970;2023-02-18T01:43:47;10.20;99.90
38568;DHT22;24338;48.280;10.970;2023-02-18T01:46:17;10.20;99.90
38568;DHT22;24338;48.280;10.970;2023-02-18T01:48:52;10.20;99.90
38568;DHT22;24338;48.280;10.970;2023-02-18T01:51:33;10.20;99.90
38568;DHT22;24338;48.280;10.970;2023-02-18T01:54:12;10.20;99.90
38568;DHT22;24338;48.280;10.970;2023-02-18T01:56:48;10.20;99.90
38568;DHT22;24338;48.280;10.970;2023-02-18T01:59:20;10.10;99.90
38568;DHT22;24338;48.280;10.970;2023-02-18T02:01:48;10.10;99.90
38568;DHT22;24338;48.280;10.970;2023-02-18T02:04:15;10.00;99.90
38568;DHT22;24338;48.280;10.970;2023-02-18T02:06:42;10.00;99.90
38568;DHT22;24338;48.280;10.970;2023-02-18T02:09:12;10.00;99.90
38568;DHT22;24338;48.280;10.970;2023-02-18T02:11:55;9.90;99.90
38568;DHT22;24338;48.280;10.970;2023-02-18T02:14:41;10.00;99.90
38568;DHT22;24338;48.280;10.970;2023-02-18T02:20:35;9.90;99.90
38568;DHT22;24338;48.280;10.970;2023-02-18T02:26:34;9.80;99.90
38568;DHT22;24338;48.280;10.970;2023-02-18T02:40:34;9.70;99.90
38568;DHT22;24338;48.280;10.970;2023-02-18T02:45:54;9.70;99.90
38568;DHT22;24338;48.280;10.970;2023-02-18T02:51:31;9.70;99.90
38568;DHT22;24338;48.280;10.970;2023-02-18T02:54:22;9.60;99.90
38568;DHT22;24338;48.280;10.970;2023-02-18T02:56:49;9.70;99.90
38568;DHT22;24338;48.280;10.970;2023-02-18T02:59:22;9.60;99.90
38568;DHT22;24338;48.280;10.970;2023-02-18T03:02:17;9.60;99.90
38568;DHT22;24338;48.280;10.970;2023-02-18T03:18:32;9.40;99.90
38568;DHT22;24338;48.280;10.970;2023-02-18T03:21:10;9.30;99.90
38568;DHT22;24338;48.280;10.970;2023-02-18T03:23:43;9.30;99.90
38568;DHT22;24338;48.280;10.970;2023-02-18T03:26:14;9.20;99.90
38568;DHT22;24338;48.280;10.970;2023-02-18T03:28:42;9.10;99.90
38568;DHT22;24338;48.280;10.970;2023-02-18T03:31:19;9.10;99.90
38568;DHT22;24338;48.280;10.970;2023-02-18T03:34:01;9.10;99.90
38568;DHT22;24338;48.280;10.970;2023-02-18T03:36:30;9.10;99.90
38568;DHT22;24338;48.280;10.970;2023-02-18T03:39:10;9.10;99.90
38568;DHT22;24338;48.280;10.970;2023-02-18T03:41:39;9.10;99.90
38568;DHT22;24338;48.280;10.970;2023-02-18T03:44:08;9.10;99.90
38568;DHT22;24338;48.280;10.970;2023-02-18T03:46:37;9.20;99.90
38568;DHT22;24338;48.280;10.970;2023-02-18T03:49:05;9.20;99.90
38568;DHT22;24338;48.280;10.970;2023-02-18T03:51:32;9.10;99.90
38568;DHT22;24338;48.280;10.970;2023-02-18T03:53:59;9.10;99.90
38568;DHT22;24338;48.280;10.970;2023-02-18T03:56:25;9.10;99.90
38568;DHT22;24338;48.280;10.970;2023-02-18T03:58:52;9.10;99.90
38568;DHT22;24338;48.280;10.970;2023-02-18T04:01:19;9.10;99.90
38568;DHT22;24338;48.280;10.970;2023-02-18T04:03:46;9.10;99.90
38568;DHT22;24338;48.280;10.970;2023-02-18T04:06:13;9.20;99.90
38568;DHT22;24338;48.280;10.970;2023-02-18T04:08:40;9.20;99.90
38568;DHT22;24338;48.280;10.970;2023-02-18T04:11:07;9.30;99.90
38568;DHT22;24338;48.280;10.970;2023-02-18T04:13:34;9.30;99.90
38568;DHT22;24338;48.280;10.970;2023-02-18T04:16:00;9.30;99.90
38568;DHT22;24338;48.280;10.970;2023-02-18T04:18:27;9.30;99.90
38568;DHT22;24338;48.280;10.970;2023-02-18T04:20:54;9.30;99.90
38568;DHT22;24338;48.280;10.970;2023-02-18T04:23:21;9.40;99.90
38568;DHT22;24338;48.280;10.970;2023-02-18T04:25:48;9.40;99.90
38568;DHT22;24338;48.280;10.970;2023-02-18T04:28:15;9.40;99.90
38568;DHT22;24338;48.280;10.970;2023-02-18T04:30:43;9.50;99.90
38568;DHT22;24338;48.280;10.970;2023-02-18T04:33:11;9.40;99.90
38568;DHT22;24338;48.280;10.970;2023-02-18T04:35:38;9.40;99.90
38568;DHT22;24338;48.280;10.970;2023-02-18T04:38:09;9.50;99.90
38568;DHT22;24338;48.280;10.970;2023-02-18T04:40:36;9.50;99.90
38568;DHT22;24338;48.280;10.970;2023-02-18T04:43:03;9.50;99.90
38568;DHT22;24338;48.280;10.970;2023-02-18T04:45:30;9.50;99.90
38568;DHT22;24338;48.280;10.970;2023-02-18T04:47:57;9.50;99.90
38568;DHT22;24338;48.280;10.970;2023-02-18T04:50:23;9.50;99.90
38568;DHT22;24338;48.280;10.970;2023-02-18T04:52:50;9.50;99.90
38568;DHT22;24338;48.280;10.970;2023-02-18T04:55:17;9.60;99.90
38568;DHT22;24338;48.280;10.970;2023-02-18T04:57:44;9.60;99.90
38568;DHT22;24338;48.280;10.970;2023-02-18T05:00:15;9.50;99.90
38568;DHT22;24338;48.280;10.970;2023-02-18T05:02:43;9.50;99.90
38568;DHT22;24338;48.280;10.970;2023-02-18T05:05:11;9.50;99.90
38568;DHT22;24338;48.280;10.970;2023-02-18T05:07:38;9.50;99.90
38568;DHT22;24338;48.280;10.970;2023-02-18T05:10:06;9.50;99.90
38568;DHT22;24338;48.280;10.970;2023-02-18T05:12:33;9.50;99.90
38568;DHT22;24338;48.280;10.970;2023-02-18T05:14:59;9.50;99.90
38568;DHT22;24338;48.280;10.970;2023-02-18T05:17:26;9.50;99.90
38568;DHT22;24338;48.280;10.970;2023-02-18T05:19:53;9.50;99.90
38568;DHT22;24338;48.280;10.970;2023-02-18T05:22:20;9.50;99.90
38568;DHT22;24338;48.280;10.970;2023-02-18T05:24:47;9.50;99.90
38568;DHT22;24338;48.280;10.970;2023-02-18T05:27:13;9.50;99.90
38568;DHT22;24338;48.280;10.970;2023-02-18T05:29:40;9.50;99.90
38568;DHT22;24338;48.280;10.970;2023-02-18T05:32:07;9.50;99.90
38568;DHT22;24338;48.280;10.970;2023-02-18T05:34:34;9.50;99.90
38568;DHT22;24338;48.280;10.970;2023-02-18T05:37:01;9.50;99.90
38568;DHT22;24338;48.280;10.970;2023-02-18T05:39:27;9.50;99.90
38568;DHT22;24338;48.280;10.970;2023-02-18T05:41:54;9.50;99.90
38568;DHT22;24338;48.280;10.970;2023-02-18T05:44:21;9.50;99.90
38568;DHT22;24338;48.280;10.970;2023-02-18T05:47:02;9.50;99.90
38568;DHT22;24338;48.280;10.970;2023-02-18T05:49:30;9.50;99.90
38568;DHT22;24338;48.280;10.970;2023-02-18T05:51:58;9.50;99.90
38568;DHT22;24338;48.280;10.970;2023-02-18T05:54:25;9.50;99.90
38568;DHT22;24338;48.280;10.970;2023-02-18T05:56:53;9.50;99.90
38568;DHT22;24338;48.280;10.970;2023-02-18T05:59:20;9.50;99.90
38568;DHT22;24338;48.280;10.970;2023-02-18T06:01:47;9.50;99.90
38568;DHT22;24338;48.280;10.970;2023-02-18T06:04:15;9.50;99.90
38568;DHT22;24338;48.280;10.970;2023-02-18T06:06:42;9.50;99.90
38568;DHT22;24338;48.280;10.970;2023-02-18T06:09:08;9.50;99.90
38568;DHT22;24338;48.280;10.970;2023-02-18T06:11:35;9.40;99.90
38568;DHT22;24338;48.280;10.970;2023-02-18T06:14:02;9.30;99.90
38568;DHT22;24338;48.280;10.970;2023-02-18T06:16:30;9.30;99.90
38568;DHT22;24338;48.280;10.970;2023-02-18T06:18:57;9.30;99.90
38568;DHT22;24338;48.280;10.970;2023-02-18T06:21:23;9.30;99.90
38568;DHT22;24338;48.280;10.970;2023-02-18T06:23:50;9.20;99.90
38568;DHT22;24338;48.280;10.970;2023-02-18T06:26:17;9.20;99.90
38568;DHT22;24338;48.280;10.970;2023-02-18T06:28:44;9.30;99.90
38568;DHT22;24338;48.280;10.970;2023-02-18T06:31:11;9.20;99.90
38568;DHT22;24338;48.280;10.970;2023-02-18T06:33:38;9.30;99.90
38568;DHT22;24338;48.280;10.970;2023-02-18T06:36:06;9.20;99.90
38568;DHT22;24338;48.280;10.970;2023-02-18T06:38:35;9.20;99.90
38568;DHT22;24338;48.280;10.970;2023-02-18T06:41:02;9.30;99.90
38568;DHT22;24338;48.280;10.970;2023-02-18T06:43:29;9.30;99.90
38568;DHT22;24338;48.280;10.970;2023-02-18T06:45:56;9.30;99.90
38568;DHT22;24338;48.280;10.970;2023-02-18T06:48:23;9.40;99.90
38568;DHT22;24338;48.280;10.970;2023-02-18T06:50:50;9.40;99.90
38568;DHT22;24338;48.280;10.970;2023-02-18T06:53:17;9.50;99.90
38568;DHT22;24338;48.280;10.970;2023-02-18T06:55:44;9.50;99.90
38568;DHT22;24338;48.280;10.970;2023-02-18T06:58:12;9.60;99.90
38568;DHT22;24338;48.280;10.970;2023-02-18T07:00:39;9.70;99.90
38568;DHT22;24338;48.280;10.970;2023-02-18T07:03:07;9.70;99.90
38568;DHT22;24338;48.280;10.970;2023-02-18T07:05:34;9.70;99.90
38568;DHT22;24338;48.280;10.970;2023-02-18T07:08:00;9.70;99.90
38568;DHT22;24338;48.280;10.970;2023-02-18T07:10:27;9.70;99.90
38568;DHT22;24338;48.280;10.970;2023-02-18T07:12:54;9.70;99.90
38568;DHT22;24338;48.280;10.970;2023-02-18T07:15:21;9.70;99.90
38568;DHT22;24338;48.280;10.970;2023-02-18T07:17:50;9.70;99.90
38568;DHT22;24338;48.280;10.970;2023-02-18T07:20:18;9.70;99.90
38568;DHT22;24338;48.280;10.970;2023-02-18T07:22:46;9.80;99.90
38568;DHT22;24338;48.280;10.970;2023-02-18T07:25:13;9.80;99.90
38568;DHT22;24338;48.280;10.970;2023-02-18T07:27:40;9.80;99.90
38568;DHT22;24338;48.280;10.970;2023-02-18T07:30:07;9.90;99.90
38568;DHT22;24338;48.280;10.970;2023-02-18T07:32:35;9.90;99.90
38568;DHT22;24338;48.280;10.970;2023-02-18T07:35:03;10.00;99.90
38568;DHT22;24338;48.280;10.970;2023-02-18T07:37:31;10.10;99.90
38568;DHT22;24338;48.280;10.970;2023-02-18T07:39:58;10.10;99.90
38568;DHT22;24338;48.280;10.970;2023-02-18T07:42:24;10.20;99.90
38568;DHT22;24338;48.280;10.970;2023-02-18T07:44:51;10.30;99.90
38568;DHT22;24338;48.280;10.970;2023-02-18T07:47:18;10.30;99.90
38568;DHT22;24338;48.280;10.970;2023-02-18T07:49:45;10.30;99.90
38568;DHT22;24338;48.280;10.970;2023-02-18T07:52:13;10.40;99.90
38568;DHT22;24338;48.280;10.970;2023-02-18T07:54:41;10.40;99.90
38568;DHT22;24338;48.280;10.970;2023-02-18T07:57:07;10.50;99.90
38568;DHT22;24338;48.280;10.970;2023-02-18T07:59:34;10.50;99.90
38568;DHT22;24338;48.280;10.970;2023-02-18T08:02:02;10.60;99.90
38568;DHT22;24338;48.280;10.970;2023-02-18T08:04:28;10.70;99.90
38568;DHT22;24338;48.280;10.970;2023-02-18T08:06:55;10.70;99.90
38568;DHT22;24338;48.280;10.970;2023-02-18T08:09:22;10.80;99.90
38568;DHT22;24338;48.280;10.970;2023-02-18T08:11:49;10.90;99.90
38568;DHT22;24338;48.280;10.970;2023-02-18T08:14:16;10.90;99.90
38568;DHT22;24338;48.280;10.970;2023-02-18T08:16:42;11.00;99.90
38568;DHT22;24338;48.280;10.970;2023-02-18T08:19:09;11.00;99.90
38568;DHT22;24338;48.280;10.970;2023-02-18T08:21:36;11.00;99.90
38568;DHT22;24338;48.280;10.970;2023-02-18T08:24:03;11.10;99.90
38568;DHT22;24338;48.280;10.970;2023-02-18T08:26:30;11.10;99.90
38568;DHT22;24338;48.280;10.970;2023-02-18T08:28:56;11.20;99.90
38568;DHT22;24338;48.280;10.970;2023-02-18T08:31:25;11.20;99.90
38568;DHT22;24338;48.280;10.970;2023-02-18T08:33:54;11.30;99.90
38568;DHT22;24338;48.280;10.970;2023-02-18T08:36:21;11.30;99.90
38568;DHT22;24338;48.280;10.970;2023-02-18T08:38:48;11.40;99.90
38568;DHT22;24338;48.280;10.970;2023-02-18T08:41:15;11.50;99.90
38568;DHT22;24338;48.280;10.970;2023-02-18T08:43:44;11.50;99.90
38568;DHT22;24338;48.280;10.970;2023-02-18T08:46:12;11.60;99.90
38568;DHT22;24338;48.280;10.970;2023-02-18T08:48:50;11.50;99.90
38568;DHT22;24338;48.280;10.970;2023-02-18T08:51:20;11.60;99.90
38568;DHT22;24338;48.280;10.970;2023-02-18T08:53:48;11.60;99.90
38568;DHT22;24338;48.280;10.970;2023-02-18T08:56:15;11.60;99.90
38568;DHT22;24338;48.280;10.970;2023-02-18T08:58:43;11.60;99.90
38568;DHT22;24338;48.280;10.970;2023-02-18T09:01:11;11.70;99.90
38568;DHT22;24338;48.280;10.970;2023-02-18T09:03:39;11.80;99.90
38568;DHT22;24338;48.280;10.970;2023-02-18T09:06:06;11.80;99.90
38568;DHT22;24338;48.280;10.970;2023-02-18T09:08:33;11.80;99.90
38568;DHT22;24338;48.280;10.970;2023-02-18T09:11:02;11.70;99.90
38568;DHT22;24338;48.280;10.970;2023-02-18T09:13:31;11.70;99.90
38568;DHT22;24338;48.280;10.970;2023-02-18T09:16:04;11.70;99.90
38568;DHT22;24338;48.280;10.970;2023-02-18T09:18:32;11.70;99.90
38568;DHT22;24338;48.280;10.970;2023-02-18T09:21:01;11.70;99.90
38568;DHT22;24338;48.280;10.970;2023-02-18T09:23:29;11.70;99.90
38568;DHT22;24338;48.280;10.970;2023-02-18T09:25:56;11.70;99.90
38568;DHT22;24338;48.280;10.970;2023-02-18T09:28:24;11.80;99.90
38568;DHT22;24338;48.280;10.970;2023-02-18T09:30:51;12.00;99.90
38568;DHT22;24338;48.280;10.970;2023-02-18T09:33:18;12.10;99.90
38568;DHT22;24338;48.280;10.970;2023-02-18T09:35:45;12.10;99.90
38568;DHT22;24338;48.280;10.970;2023-02-18T09:38:15;12.20;99.90
38568;DHT22;24338;48.280;10.970;2023-02-18T09:40:49;12.30;99.90
38568;DHT22;24338;48.280;10.970;2023-02-18T09:43:41;12.30;99.90
38568;DHT22;24338;48.280;10.970;2023-02-18T09:46:24;12.20;99.90
38568;DHT22;24338;48.280;10.970;2023-02-18T09:51:19;12.30;99.90
38568;DHT22;24338;48.280;10.970;2023-02-18T09:53:47;12.30;99.90
38568;DHT22;24338;48.280;10.970;2023-02-18T09:56:30;12.40;99.90
38568;DHT22;24338;48.280;10.970;2023-02-18T09:58:58;12.50;99.90
38568;DHT22;24338;48.280;10.970;2023-02-18T10:04:16;12.80;99.90
38568;DHT22;24338;48.280;10.970;2023-02-18T10:06:48;12.90;99.90
38568;DHT22;24338;48.280;10.970;2023-02-18T10:09:19;13.00;99.90
38568;DHT22;24338;48.280;10.970;2023-02-18T10:12:10;13.00;99.90
38568;DHT22;24338;48.280;10.970;2023-02-18T10:14:37;13.10;99.90
38568;DHT22;24338;48.280;10.970;2023-02-18T10:17:04;13.20;99.90
38568;DHT22;24338;48.280;10.970;2023-02-18T10:19:35;13.40;99.90
38568;DHT22;24338;48.280;10.970;2023-02-18T10:22:04;13.30;99.90
38568;DHT22;24338;48.280;10.970;2023-02-18T10:24:53;13.20;99.90
38568;DHT22;24338;48.280;10.970;2023-02-18T10:27:29;13.20;99.90
38568;DHT22;24338;48.280;10.970;2023-02-18T10:30:21;13.10;99.90
38568;DHT22;24338;48.280;10.970;2023-02-18T10:32:55;13.00;99.90
38568;DHT22;24338;48.280;10.970;2023-02-18T10:35:35;13.00;99.90
38568;DHT22;24338;48.280;10.970;2023-02-18T10:38:19;12.90;99.90
38568;DHT22;24338;48.280;10.970;2023-02-18T10:41:00;12.90;99.90
38568;DHT22;24338;48.280;10.970;2023-02-18T10:51:39;13.30;99.90
38568;DHT22;24338;48.280;10.970;2023-02-18T10:54:07;13.40;99.90
38568;DHT22;24338;48.280;10.970;2023-02-18T10:56:46;13.40;99.90
38568;DHT22;24338;48.280;10.970;2023-02-18T10:59:22;13.40;99.90
38568;DHT22;24338;48.280;10.970;2023-02-18T11:02:01;13.60;99.90
38568;DHT22;24338;48.280;10.970;2023-02-18T11:04:39;13.60;99.90
38568;DHT22;24338;48.280;10.970;2023-02-18T11:07:21;13.50;99.90
38568;DHT22;24338;48.280;10.970;2023-02-18T11:09:52;13.50;99.90
38568;DHT22;24338;48.280;10.970;2023-02-18T11:12:24;13.50;99.90
38568;DHT22;24338;48.280;10.970;2023-02-18T11:15:17;13.60;99.90
38568;DHT22;24338;48.280;10.970;2023-02-18T11:17:47;13.40;99.90
38568;DHT22;24338;48.280;10.970;2023-02-18T11:20:32;13.40;99.90
38568;DHT22;24338;48.280;10.970;2023-02-18T11:25:39;13.80;99.90
38568;DHT22;24338;48.280;10.970;2023-02-18T11:30:56;13.80;99.90
38568;DHT22;24338;48.280;10.970;2023-02-18T11:33:35;13.90;99.90
38568;DHT22;24338;48.280;10.970;2023-02-18T11:38:48;14.00;99.90
38568;DHT22;24338;48.280;10.970;2023-02-18T11:41:19;14.10;99.90
38568;DHT22;24338;48.280;10.970;2023-02-18T11:43:51;14.40;99.90
38568;DHT22;24338;48.280;10.970;2023-02-18T11:46:22;14.30;99.90
38568;DHT22;24338;48.280;10.970;2023-02-18T11:48:50;14.20;99.90
38568;DHT22;24338;48.280;10.970;2023-02-18T11:51:26;14.30;99.90
38568;DHT22;24338;48.280;10.970;2023-02-18T11:56:29;14.20;99.90
38568;DHT22;24338;48.280;10.970;2023-02-18T11:58:56;14.20;99.90
38568;DHT22;24338;48.280;10.970;2023-02-18T12:01:42;14.00;99.90
38568;DHT22;24338;48.280;10.970;2023-02-18T12:04:36;13.90;99.90
38568;DHT22;24338;48.280;10.970;2023-02-18T12:09:36;13.70;99.90
38568;DHT22;24338;48.280;10.970;2023-02-18T12:12:12;13.70;99.90
38568;DHT22;24338;48.280;10.970;2023-02-18T12:14:40;13.70;99.90
38568;DHT22;24338;48.280;10.970;2023-02-18T12:20:35;13.80;99.90
38568;DHT22;24338;48.280;10.970;2023-02-18T12:26:28;13.60;99.90
38568;DHT22;24338;48.280;10.970;2023-02-18T12:29:20;13.60;99.90
38568;DHT22;24338;48.280;10.970;2023-02-18T12:32:02;13.60;99.90
38568;DHT22;24338;48.280;10.970;2023-02-18T12:34:52;13.70;99.90
38568;DHT22;24338;48.280;10.970;2023-02-18T12:46:00;13.40;99.90
38568;DHT22;24338;48.280;10.970;2023-02-18T12:49:08;13.40;99.90
38568;DHT22;24338;48.280;10.970;2023-02-18T13:00:16;13.10;99.90
38568;DHT22;24338;48.280;10.970;2023-02-18T13:11:37;13.10;99.90
38568;DHT22;24338;48.280;10.970;2023-02-18T13:14:15;13.10;99.90
38568;DHT22;24338;48.280;10.970;2023-02-18T13:16:47;13.10;99.90
38568;DHT22;24338;48.280;10.970;2023-02-18T13:21:53;13.20;99.90
38568;DHT22;24338;48.280;10.970;2023-02-18T13:24:36;13.20;99.90
38568;DHT22;24338;48.280;10.970;2023-02-18T13:30:15;13.30;99.90
38568;DHT22;24338;48.280;10.970;2023-02-18T13:35:59;13.20;99.90
38568;DHT22;24338;48.280;10.970;2023-02-18T13:41:00;13.20;99.90
38568;DHT22;24338;48.280;10.970;2023-02-18T13:43:29;13.20;99.90
38568;DHT22;24338;48.280;10.970;2023-02-18T13:46:16;13.10;99.90
38568;DHT22;24338;48.280;10.970;2023-02-18T13:49:03;13.20;99.90
38568;DHT22;24338;48.280;10.970;2023-02-18T13:51:44;13.20;99.90
38568;DHT22;24338;48.280;10.970;2023-02-18T13:57:05;13.10;99.90
38568;DHT22;24338;48.280;10.970;2023-02-18T14:04:55;13.00;99.90
38568;DHT22;24338;48.280;10.970;2023-02-18T14:07:37;13.00;99.90
38568;DHT22;24338;48.280;10.970;2023-02-18T14:20:48;12.80;99.90
38568;DHT22;24338;48.280;10.970;2023-02-18T14:25:51;12.70;99.90
38568;DHT22;24338;48.280;10.970;2023-02-18T14:28:43;12.60;99.90
38568;DHT22;24338;48.280;10.970;2023-02-18T14:49:57;12.80;99.90
38568;DHT22;24338;48.280;10.970;2023-02-18T14:55:00;12.80;99.90
38568;DHT22;24338;48.280;10.970;2023-02-18T14:57:43;12.70;99.90
38568;DHT22;24338;48.280;10.970;2023-02-18T15:00:22;12.70;99.90
38568;DHT22;24338;48.280;10.970;2023-02-18T15:02:52;12.70;99.90
38568;DHT22;24338;48.280;10.970;2023-02-18T15:05:22;12.70;99.90
38568;DHT22;24338;48.280;10.970;2023-02-18T15:15:55;12.70;99.90
38568;DHT22;24338;48.280;10.970;2023-02-18T15:19:02;12.70;99.90
38568;DHT22;24338;48.280;10.970;2023-02-18T15:21:37;12.70;99.90
38568;DHT22;24338;48.280;10.970;2023-02-18T15:24:15;12.70;99.90
38568;DHT22;24338;48.280;10.970;2023-02-18T15:26:47;12.70;99.90
38568;DHT22;24338;48.280;10.970;2023-02-18T15:29:28;12.70;99.90
38568;DHT22;24338;48.280;10.970;2023-02-18T15:31:56;12.70;99.90
38568;DHT22;24338;48.280;10.970;2023-02-18T15:34:30;12.80;99.90
38568;DHT22;24338;48.280;10.970;2023-02-18T15:36:59;12.70;99.90
38568;DHT22;24338;48.280;10.970;2023-02-18T15:39:26;12.70;99.90
38568;DHT22;24338;48.280;10.970;2023-02-18T15:41:55;12.70;99.90
38568;DHT22;24338;48.280;10.970;2023-02-18T15:44:25;12.70;99.90
38568;DHT22;24338;48.280;10.970;2023-02-18T15:46:54;12.70;99.90
38568;DHT22;24338;48.280;10.970;2023-02-18T15:49:22;12.60;99.90
38568;DHT22;24338;48.280;10.970;2023-02-18T15:51:50;12.60;99.90
38568;DHT22;24338;48.280;10.970;2023-02-18T15:54:22;12.60;99.90
38568;DHT22;24338;48.280;10.970;2023-02-18T15:56:52;12.60;99.90
38568;DHT22;24338;48.280;10.970;2023-02-18T15:59:32;12.50;99.90
38568;DHT22;24338;48.280;10.970;2023-02-18T16:02:16;12.50;99.90
38568;DHT22;24338;48.280;10.970;2023-02-18T16:04:49;12.50;99.90
38568;DHT22;24338;48.280;10.970;2023-02-18T16:07:30;12.40;99.90
38568;DHT22;24338;48.280;10.970;2023-02-18T16:10:18;12.40;99.90
38568;DHT22;24338;48.280;10.970;2023-02-18T16:12:49;12.30;99.90
38568;DHT22;24338;48.280;10.970;2023-02-18T16:15:25;12.30;99.90
38568;DHT22;24338;48.280;10.970;2023-02-18T16:17:54;12.30;99.90
38568;DHT22;24338;48.280;10.970;2023-02-18T16:20:34;12.30;99.90
38568;DHT22;24338;48.280;10.970;2023-02-18T16:23:10;12.20;99.90
38568;DHT22;24338;48.280;10.970;2023-02-18T16:28:11;12.00;99.90
38568;DHT22;24338;48.280;10.970;2023-02-18T16:30:38;12.00;99.90
38568;DHT22;24338;48.280;10.970;2023-02-18T16:33:07;11.90;99.90
38568;DHT22;24338;48.280;10.970;2023-02-18T16:35:34;11.90;99.90
38568;DHT22;24338;48.280;10.970;2023-02-18T16:38:23;11.80;99.90
38568;DHT22;24338;48.280;10.970;2023-02-18T16:40:52;11.80;99.90
38568;DHT22;24338;48.280;10.970;2023-02-18T16:43:24;11.80;99.90
38568;DHT22;24338;48.280;10.970;2023-02-18T16:45:55;11.70;99.90
38568;DHT22;24338;48.280;10.970;2023-02-18T16:51:04;11.60;99.90
38568;DHT22;24338;48.280;10.970;2023-02-18T16:53:31;11.60;99.90
38568;DHT22;24338;48.280;10.970;2023-02-18T16:55:58;11.60;99.90
38568;DHT22;24338;48.280;10.970;2023-02-18T16:58:26;11.50;99.90
38568;DHT22;24338;48.280;10.970;2023-02-18T17:00:53;11.50;99.90
38568;DHT22;24338;48.280;10.970;2023-02-18T17:03:20;11.50;99.90
38568;DHT22;24338;48.280;10.970;2023-02-18T17:05:47;11.50;99.90
38568;DHT22;24338;48.280;10.970;2023-02-18T17:08:21;11.40;99.90
38568;DHT22;24338;48.280;10.970;2023-02-18T17:10:51;11.50;99.90
38568;DHT22;24338;48.280;10.970;2023-02-18T17:13:25;11.40;99.90
38568;DHT22;24338;48.280;10.970;2023-02-18T17:15:53;11.40;99.90
38568;DHT22;24338;48.280;10.970;2023-02-18T17:18:21;11.30;99.90
38568;DHT22;24338;48.280;10.970;2023-02-18T17:20:50;11.30;99.90
38568;DHT22;24338;48.280;10.970;2023-02-18T17:23:20;11.30;99.90
38568;DHT22;24338;48.280;10.970;2023-02-18T17:25:48;11.30;99.90
38568;DHT22;24338;48.280;10.970;2023-02-18T17:28:15;11.20;99.90
38568;DHT22;24338;48.280;10.970;2023-02-18T17:31:03;11.20;99.90
38568;DHT22;24338;48.280;10.970;2023-02-18T17:33:30;11.20;99.90
38568;DHT22;24338;48.280;10.970;2023-02-18T17:35:57;11.10;99.90
38568;DHT22;24338;48.280;10.970;2023-02-18T17:38:25;11.10;99.90
38568;DHT22;24338;48.280;10.970;2023-02-18T17:40:52;11.10;99.90
38568;DHT22;24338;48.280;10.970;2023-02-18T17:43:18;11.10;99.90
38568;DHT22;24338;48.280;10.970;2023-02-18T17:45:47;11.00;99.90
38568;DHT22;24338;48.280;10.970;2023-02-18T17:48:15;11.00;99.90
38568;DHT22;24338;48.280;10.970;2023-02-18T17:50:42;11.00;99.90
38568;DHT22;24338;48.280;10.970;2023-02-18T17:53:12;11.00;99.90
38568;DHT22;24338;48.280;10.970;2023-02-18T17:55:40;11.00;99.90
38568;DHT22;24338;48.280;10.970;2023-02-18T17:58:12;11.00;99.90
38568;DHT22;24338;48.280;10.970;2023-02-18T18:00:52;11.00;99.90
38568;DHT22;24338;48.280;10.970;2023-02-18T18:03:19;11.00;99.90
38568;DHT22;24338;48.280;10.970;2023-02-18T18:05:48;11.00;99.90
38568;DHT22;24338;48.280;10.970;2023-02-18T18:08:18;10.90;99.90
38568;DHT22;24338;48.280;10.970;2023-02-18T18:10:59;10.90;99.90
38568;DHT22;24338;48.280;10.970;2023-02-18T18:13:29;10.90;99.90
38568;DHT22;24338;48.280;10.970;2023-02-18T18:15:58;10.90;99.90
38568;DHT22;24338;48.280;10.970;2023-02-18T18:18:26;10.90;99.90
38568;DHT22;24338;48.280;10.970;2023-02-18T18:20:56;10.90;99.90
38568;DHT22;24338;48.280;10.970;2023-02-18T18:23:25;10.90;99.90
38568;DHT22;24338;48.280;10.970;2023-02-18T18:25:54;10.90;99.90